Tiempo atmosférico en la estación meteorológica de Llerena, Badajoz (655 m.)



Fecha
DESCASC
Temp. máxima en grados centígrados (hora)
DESCASC
Temp. mínima en grados centígrados (hora)
DESCASC
Temp. media en grados centígrados
DESCASC
Racha de viento máxima en m/sg (hora)
DESCASC
Velocidad máxima media en intervalos de 10 minutos(hora)
DESCASC
Precipitaciones diarias en mm
DESCASC
Precipitaciones de 00:00 a 06:00 en mm
DESCASC
Precipitaciones de 06:00 a 12:00 en mm
DESCASC
Precipitaciones de 12:00 a 18:00 en mm
DESCASC
Precipitaciones de 18:00 a 24:00 en mm
DESCASC
05-04-2020 17.6 (14:50) 10.5 (02:00) 14.1 15.56 (07:40) 12.22 (07:40) 0.4 0 0 0 0.4
04-04-2020 14.8 (14:30) 7 (06:50) 10.9 13.33 (13:30) 8.89 (11:30) 0 0 0 0 0
03-04-2020 17.8 (17:00) 7.3 (07:30) 12.5 7.22 (23:40) 6.11 (23:40) 0 0 0 0 0
02-04-2020 13.7 (18:50) 5.1 (00:00) 9.4 10.83 (01:10) 6.67 (01:00) 4.8 4.8 0 0 0
01-04-2020 12.3 (15:10) 3.2 (00:00) 7.8 11.11 (15:50) 7.78 (15:50) 1.2 0 0.2 0.8 0.2
31-03-2020 14.2 (14:50) 6.6 (00:00) 10.4 14.17 (16:10) 9.72 (01:20) 20.4 8.2 6 5 1.2
30-03-2020 14.1 (13:00) 7.5 (00:00) 10.8 9.44 (23:10) 6.67 (23:10) 6.2 0 0 3 3.2
29-03-2020 15.9 (16:00) 7.3 (00:00) 11.6 6.11 (21:30) 3.89 (01:00) 0 0 0 0 0
28-03-2020 14.7 (17:00) 1.6 (00:00) 8.1 7.5 (00:50) 5.83 (01:00) 0 0 0 0 0
27-03-2020 12.8 (15:30) 4.3 (00:00) 8.6 7.22 (23:00) 5 (23:00) 0 0 0 0 0
26-03-2020 17.9 (14:00) 7.4 (00:00) 12.6 10.83 (18:00) 7.5 (18:30) 0 0 0 0 0
25-03-2020 18 (15:40) 6.6 (00:00) 12.3 10.28 (23:59) 6.94 (23:59) 0 0 0 0 0
24-03-2020 15.6 (16:30) 6 (00:00) 10.8 12.22 (10:10) 8.61 (10:00) 0.2 0 0.2 0 0
23-03-2020 13.3 (15:00) 6.6 (00:00) 10 10.28 (21:20) 7.5 (21:20) 1.6 0.4 0 0.6 0.6
22-03-2020 13.5 (17:40) 5 (04:50) 9.3 7.78 (10:50) 5.28 (10:40) 0 0 0 0 0
21-03-2020 12.1 (12:30) 5.2 (00:00) 8.7 11.67 (00:30) 8.33 (15:50) 24.4 17.2 0.2 4.4 2.6
20-03-2020 15.1 (12:30) 10.2 (00:00) 12.7 13.06 (23:10) 7.22 (23:20) 8.6 0 0 2 6.6
19-03-2020 17.1 (16:40) 7.1 (00:00) 12.1 7.22 (23:59) 5.83 (23:59) 0 0 0 0 0
18-03-2020 19.5 (16:50) 7.3 (00:00) 13.4 10.28 (12:40) 7.78 (12:20) 0 0 0 0 0
17-03-2020 14.9 (17:00) 2.8 (00:00) 8.8 13.33 (16:20) 9.17 (10:40) 3.2 2 1 0 0.2
16-03-2020 10.1 (14:10) 1.2 (00:00) 5.7 16.11 (16:40) 10.56 (02:10) 4.8 0 0 0 4.8
15-03-2020 21.3 (15:10) 8.2 (00:00) 14.7 12.5 (23:50) 8.33 (23:50) 1.4 0 0 0 1.4
14-03-2020 23.1 (17:10) 10.1 (00:00) 16.6 5.83 (18:20) 4.72 (18:20) 0 0 0 0 0
13-03-2020 21.8 (15:50) 11.6 (23:30) 16.7 8.33 (14:20) 5.83 (13:40) 0 0 0 0 0
12-03-2020 24 (15:30) 14.1 (00:00) 19.1 13.33 (11:00) 10 (04:20) 0 0 0 0 0
11-03-2020 27.1 (14:30) 13.6 (00:00) 20.4 11.67 (23:59) 8.89 (23:50) 0 0 0 0 0

Gráficas

Temp. máximas Temp. mínimas Temp. medias Precipitaciones Rachas de viento máximas Velocidades máximas media en intervalos de 10 minutos

Datos horarios

Fecha y hora oficial Temperatura (ºC) Velocidad del viento (km/h) Dirección del viento Racha (km/h) Dirección de racha Precipitación (mm) Presión (hPa) Tendencia (hPa) Humedad (%)
2020-04-09 23:00:00 12.8 16 Sudoeste 24 Sudoeste 0 945.2 1.4 93
2020-04-09 22:00:00 13.1 12 Sudoeste 19 Sur 0.2 944.5 0.8 93
2020-04-09 21:00:00 13.3 10 Sur 18 Sur 0 943.9 0.5 92
2020-04-09 20:00:00 13.9 5 Sudeste 9 Sur 0.6 943.8 0.4 92
2020-04-09 19:00:00 13.9 5 Sur 13 Sur 2.8 943.7 0.3 92
2020-04-09 18:00:00 13.5 10 Sur 21 Sur 2.2 943.4 0 91
2020-04-09 17:00:00 14 17 Sudoeste 22 Sur 0.8 943.4 -0.2 90
2020-04-09 16:00:00 14.2 15 Sur 26 Sur 0.8 943.4 -0.5 89
2020-04-09 15:00:00 15.2 21 Sudoeste 29 Sudoeste 0 943.4 -0.7 81
2020-04-09 14:00:00 15.6 19 Sur 26 Sur 0 943.6 -0.3 79
2020-04-09 13:00:00 15.9 13 Sudoeste 23 Sudoeste 0 943.9 0.4 84
2020-04-09 12:00:00 15.2 13 Sur 23 Sur 0 944.1 1 85
2020-04-09 11:00:00 15.4 10 Sudoeste 13 Sudoeste 0 943.9 1.3 85
2020-04-09 10:00:00 14 2 Este 7 Este 0.2 943.5 1.1 93
2020-04-09 09:00:00 13.5 2 Norte 8 Este 0 943.1 0.4 92
2020-04-09 08:00:00 13.3 6 Este 13 Este 0 942.6 -0.3 93
2020-04-09 07:00:00 13.9 6 Este 9 Este 0 942.4 -1 92
2020-04-09 06:00:00 14.3 0 Calma 5 Este 0 942.7 -1.2 89
2020-04-09 05:00:00 14.3 4 Este 6 Sudoeste 0 942.9 -1.3 91
2020-04-09 04:00:00 14.2 6 Sudoeste 10 Sudoeste 0 943.4 -1.3 92
2020-04-09 03:00:00 14.5 8 Sudoeste 10 Oeste 0 943.9 -0.8 89
2020-04-09 02:00:00 14.7 5 Sudoeste 10 Sudoeste 0 944.2 -0.4 84
2020-04-09 01:00:00 15.3 8 Sudoeste 11 Sudoeste 0 944.7 0.3 79
2020-04-09 00:00:00 15.6 7 Oeste 11 Noroeste 0 944.7 0.6 78
2020-04-08 23:00:00 15.8 8 Sudoeste 12 Sudoeste 0 944.6 0.4 75
2020-04-08 22:00:00 15.2 9 Sur 17 Sudoeste 0 944.4 0.2 79
2020-04-08 21:00:00 16.1 10 Sudoeste 14 Sudoeste 0 944.1 0.1 75
2020-04-08 20:00:00 18.3 11 Sudoeste 14 Sudoeste 0 944.2 -0.1 67
2020-04-08 19:00:00 19.7 3 Sur 8 Sur 0 944.2 -0.7 62
2020-04-08 18:00:00 19.9 3 Sur 12 Sudeste 0 944 -1.4 56
2020-04-08 17:00:00 19.6 6 Este 15 Sudeste 0 944.3 -1.5 57
2020-04-08 16:00:00 19.7 4 Sur 12 Oeste 0 944.9 -1.2 59
2020-04-08 15:00:00 19.3 8 Sudeste 21 Este 0 945.4 -1 65
2020-04-08 14:00:00 18.8 10 Sudeste 22 Este 0 945.8 -0.5 68
2020-04-08 13:00:00 17.4 13 Este 19 Este 0 946.1 -0.2 73
2020-04-08 12:00:00 16.9 13 Este 18 Sudeste 0 946.4 0.1 82
2020-04-08 11:00:00 14.3 4 Este 14 Este 0 946.3 0.3 96
2020-04-08 10:00:00 11.8 10 Este 17 Este 0 946.3 0.3 96
2020-04-08 09:00:00 11.2 16 Este 21 Sudeste 0 946.3 0.2 96
2020-04-08 08:00:00 11.6 10 Este 17 Sudeste 0.2 946 -0.4 95
2020-04-08 07:00:00 12.7 9 Este 15 Este 0 946 -0.9 94
2020-04-08 06:00:00 12.5 12 Sudeste 15 Sudeste 0 946.1 -1.2 93
2020-04-08 05:00:00 12 12 Sudeste 14 Sudeste 0 946.4 -1.2 94
2020-04-08 04:00:00 11.2 8 Sudeste 12 Sudeste 0 946.9 -0.9 93
2020-04-08 03:00:00 11.4 10 Sudeste 11 Sudeste 0 947.3 -0.3 92
2020-04-08 02:00:00 11.9 6 Sudeste 7 Sudeste 0 947.6 0.3 92
2020-04-08 01:00:00 11.9 6 Sudeste 7 Sudeste 0 947.8 0.7 91
2020-04-08 00:00:00 12.6 5 Sudeste 6 Sudeste 0 947.6 0.8 89
2020-04-07 23:00:00 13.7 2 Sudeste 6 Este 0 947.3 0.6 89
2020-04-07 22:00:00 14.7 0 Calma 8 Noroeste 0 947.1 0.6 85
2020-04-07 21:00:00 15.6 6 Noroeste 12 Oeste 0 946.8 0.4 82
2020-04-07 20:00:00 16.5 6 Oeste 13 Oeste 0 946.7 0 78
2020-04-07 19:00:00 17.1 8 Sudoeste 15 Sudoeste 0 946.5 -0.5 72
2020-04-07 18:00:00 18.8 7 Oeste 15 Oeste 0 946.4 -0.9 66
2020-04-07 17:00:00 17 8 Sudoeste 21 Sudoeste 0 946.7 -0.8 77
2020-04-07 16:00:00 17 13 Sudoeste 23 Sudoeste 0 947 -0.5 74
2020-04-07 15:00:00 17.3 14 Sudoeste 23 Sudoeste 0 947.3 -0.2 74
2020-04-07 14:00:00 16.7 16 Sur 23 Sudoeste 0 947.5 0.3 76
2020-04-07 13:00:00 16.2 17 Sur 31 Sudoeste 0.2 947.5 1 80
2020-04-07 12:00:00 13.7 26 Sur 35 Sur 0 947.5 1.6 86
2020-04-07 11:00:00 13.7 9 Sur 28 Sur 0 947.2 1.4 83
2020-04-07 10:00:00 12.8 23 Sur 40 Sur 0 946.5 1.1 83
2020-04-07 09:00:00 12.1 27 Sur 40 Sur 0 945.9 0.3 87
2020-04-07 08:00:00 11.4 28 Sur 41 Sur 0 945.8 0.2 89
2020-04-07 07:00:00 11.8 28 Sur 39 Sur 0 945.4 -0.7 89
2020-04-07 06:00:00 12.4 31 Sur 40 Sur 0 945.6 -0.4 89
2020-04-07 05:00:00 12.7 26 Sur 38 Sur 0 945.6 -0.3 87
2020-04-07 04:00:00 12.8 25 Sur 40 Sur 0 946.1 -0.1 88
2020-04-07 03:00:00 12.9 30 Sur 40 Sur 0 946 -0.3 90
2020-04-07 02:00:00 13.2 26 Sur 38 Sur 0 945.9 -0.4 89
2020-04-07 01:00:00 13.3 22 Sur 31 Sur 0 946.2 0.1 90
2020-04-07 00:00:00 13.4 14 Sur 28 Sur 0 946.3 0.5 90
2020-04-06 23:00:00 13.5 19 Sur 29 Sur 0 946.3 0.9 89
2020-04-06 22:00:00 13.3 15 Sur 23 Sur 0 946.1 0.7 91
2020-04-06 21:00:00 13.5 14 Sur 21 Sudoeste 0 945.8 0.3 91
2020-04-06 20:00:00 13.7 12 Sur 23 Sudeste 0 945.4 -0.1 90
2020-04-06 19:00:00 13.9 10 Sur 20 Sur 0 945.4 -0.5 89
2020-04-06 18:00:00 14.1 8 Sudeste 21 Sur 0 945.5 -0.5 90
2020-04-06 17:00:00 14.5 11 Sur 20 Sur 0 945.5 -0.3 89
2020-04-06 16:00:00 13.6 14 Sur 21 Sur 0 945.9 0.1 91
2020-04-06 15:00:00 14.6 14 Sudoeste 24 Sudoeste 0 946 0.5 84
2020-04-06 14:00:00 14.3 15 Sudoeste 30 Sudoeste 0 945.8 0.9 87
2020-04-06 13:00:00 14.8 17 Sudoeste 32 Sudoeste 0 945.8 1.3 88
2020-04-06 12:00:00 13.8 22 Sudoeste 34 Sudoeste 0 945.5 1.5 89
2020-04-06 11:00:00 13.4 20 Sur 31 Sudoeste 0 944.9 1.8 92
2020-04-06 10:00:00 12 19 Sur 27 Sur 0 944.5 1.9 95
2020-04-06 09:00:00 11.4 17 Sudoeste 27 Sur 0 944 1.6 95
2020-04-06 08:00:00 11.3 13 Sudoeste 28 Sudoeste 0 943.1 0.5 95
2020-04-06 07:00:00 11.4 17 Sudoeste 29 Sudoeste 0 942.6 0 95
2020-04-06 06:00:00 11.6 18 Sudoeste 26 Sur 0 942.4 -0.4 95
2020-04-06 05:00:00 11.8 17 Sudoeste 27 Sudoeste 0.2 942.6 -0.3 95
2020-04-06 04:00:00 12 15 Sudoeste 25 Sur 0.8 942.6 0 94
2020-04-06 03:00:00 12.2 19 Sur 31 Sur 0.2 942.8 0.5 94
2020-04-06 02:00:00 12.5 23 Sur 35 Sudoeste 0.2 942.9 0.7 93
2020-04-06 01:00:00 12.6 20 Sur 36 Sur 0.4 942.6 0.8 92
2020-04-06 00:00:00 12.7 26 Sur 41 Sur 0.4 942.3 1.3 91
2020-04-05 23:00:00 13.4 21 Sur 34 Sudoeste 0 942.2 1.4 87
2020-04-05 22:00:00 13.9 21 Sur 36 Sur 0 941.8 1.5 82
2020-04-05 21:00:00 14 24 Sur 35 Sur 0 941 0.5 80
2020-04-05 20:00:00 15.1 22 Sudoeste 40 Sudoeste 0 940.8 0.3 73
2020-04-05 19:00:00 15.9 26 Sur 44 Sur 0 940.3 -0.7 73
2020-04-05 18:00:00 16.1 30 Sur 42 Sudoeste 0 940.5 -0.6 70
2020-04-05 17:00:00 16.6 24 Sudoeste 37 Sudoeste 0 940.5 -0.2 69
2020-04-05 16:00:00 16.2 22 Sur 38 Sur 0 941 -0.1 64
2020-04-05 15:00:00 16.5 26 Sur 44 Sur 0 941.1 -0.1 64
2020-04-05 14:00:00 17.5 30 Sur 48 Sur 0 940.7 -0.2 63
2020-04-05 13:00:00 16 32 Sur 46 Sudoeste 0 941.1 0.1 61
2020-04-05 12:00:00 14.2 31 Sur 44 Sudoeste 0 941.2 0.8 66
2020-04-05 11:00:00 13.3 27 Sur 44 Sur 0 940.9 1.3 66
2020-04-05 10:00:00 12.5 33 Sur 51 Sur 0 941 2 65
2020-04-05 09:00:00 11 33 Sur 50 Sur 0 940.4 1.8 70
2020-04-05 08:00:00 10.7 35 Sur 56 Sur 0 939.6 0.4 70
2020-04-05 07:00:00 10.8 35 Sur 54 Sur 0 939 0.1 67
2020-04-05 06:00:00 11 30 Sur 44 Sur 0 938.6 -0.8 65
2020-04-05 05:00:00 10.6 19 Sur 42 Sur 0 939.2 -0.2 63
2020-04-05 04:00:00 10.7 29 Sur 49 Sudeste 0 938.9 -0.8 60
2020-04-05 03:00:00 10.9 31 Sur 44 Sur 0 939.4 -0.4 61
2020-04-05 02:00:00 10.7 24 Sudeste 43 Sudeste 0 939.4 -0.4 67
2020-04-05 01:00:00 11.1 29 Sudeste 37 Sudeste 0 939.7 0.4 69
2020-04-05 00:00:00 11.2 26 Sudeste 37 Sudeste 0 939.8 1.3 74
2020-04-04 23:00:00 11.6 26 Sudeste 33 Sudeste 0 939.8 1.5 75
2020-04-04 22:00:00 11.8 24 Sudeste 38 Sur 0 939.3 1.3 73
2020-04-04 21:00:00 11.7 24 Sudeste 32 Sur 0 938.5 0.6 73
2020-04-04 20:00:00 12.2 17 Sudeste 24 Sudeste 0 938.3 0.3 76
2020-04-04 19:00:00 13.5 17 Sur 35 Sudeste 0 938 0 64
2020-04-04 18:00:00 14.3 15 Sudeste 32 Sur 0 937.9 -0.3 63
2020-04-04 17:00:00 14.1 19 Sur 35 Sur 0 938 -0.2 62
2020-04-04 16:00:00 13.6 18 Sur 31 Sudeste 0 938 -0.1 59
2020-04-04 15:00:00 13.9 17 Sudeste 46 Sudeste 0 938.2 0 56
2020-04-04 14:00:00 13.8 31 Sudeste 48 Sudeste 0 938.2 0.4 52
2020-04-04 13:00:00 13.7 28 Sudeste 46 Sudeste 0 938.1 0.8 51
2020-04-04 12:00:00 12.9 31 Sudeste 48 Sudeste 0 938.2 1 56
2020-04-04 11:00:00 12 28 Sudeste 45 Sudeste 0 937.8 1 60
2020-04-04 10:00:00 10.1 23 Sudeste 35 Este 0 937.3 0.3 76
2020-04-04 09:00:00 9.1 24 Sudeste 37 Sudeste 0 937.2 0 74
2020-04-04 08:00:00 7.9 20 Sudeste 28 Sudeste 0 936.8 -0.7 76
2020-04-04 07:00:00 7.2 18 Sudeste 30 Sudeste 0 937 -1 78
2020-04-04 06:00:00 7.8 18 Sudeste 38 Sudeste 0 937.2 -1.4 76
2020-04-04 05:00:00 9.6 26 Sudeste 42 Sudeste 0 937.5 -1.4 62
2020-04-04 04:00:00 7.9 14 Sudeste 21 Sudeste 0 938 -1.3 78
2020-04-04 03:00:00 9.3 14 Sudeste 34 Sur 0 938.6 -0.8 70
2020-04-04 02:00:00 10.8 26 Sur 33 Sur 0 938.9 -0.5 66
2020-04-04 01:00:00 11 20 Sur 32 Sur 0 939.3 0.3 70
2020-04-04 00:00:00 11.9 20 Sur 26 Sur 0 939.4 0.6 63
2020-04-03 23:00:00 11.6 18 Sur 21 Sur 0 939.4 0.6 60
2020-04-03 22:00:00 11.9 16 Sur 23 Sur 0 939 0.3 66
2020-04-03 21:00:00 13.1 17 Sur 20 Sur 0 938.8 0.1 64
2020-04-03 20:00:00 15.3 9 Sur 17 Sudeste 0 938.8 -0.2 59
2020-04-03 19:00:00 15.9 7 Este 14 Este 0 938.7 -0.8 54
2020-04-03 18:00:00 16.1 10 Este 17 Sudeste 0 938.7 -1.4 49
2020-04-03 17:00:00 17.8 8 Este 16 Este 0 939 -1.5 48
2020-04-03 16:00:00 16 6 Sudeste 10 Sudeste 0 939.5 -1.4 52
2020-04-03 15:00:00 16 2 Sur 7 Noroeste 0 940.1 -1.1 51
2020-04-03 14:00:00 14.6 4 Norte 14 Sudoeste 0 940.5 -0.3 55
2020-04-03 13:00:00 14.1 5 Sudoeste 20 Sudoeste 0 940.9 0.4 54
2020-04-03 12:00:00 13.4 4 Este 14 Este 0 941.2 1.1 68
2020-04-03 11:00:00 13.7 8 Este 13 Este 0 940.8 1.3 67
2020-04-03 10:00:00 11.7 6 Este 8 Este 0 940.5 1.3 77
2020-04-03 09:00:00 9 3 Sur 12 Oeste 0 940.1 1.1 86
2020-04-03 08:00:00 7.7 8 Oeste 10 Oeste 0 939.5 0.4 86
2020-04-03 07:00:00 7.4 6 Sudoeste 13 Oeste 0 939.2 -0.3 87
2020-04-03 06:00:00 8 5 Oeste 10 Noroeste 0 939 -0.9 83
2020-04-03 05:00:00 8.1 7 Oeste 13 Oeste 0 939.1 -0.9 84
2020-04-03 04:00:00 7.4 10 Sudoeste 17 Oeste 0 939.5 -0.6 84
2020-04-03 03:00:00 7.8 10 Sudoeste 17 Oeste 0 939.9 0 82
2020-04-03 02:00:00 8.2 13 Sudoeste 17 Oeste 0 940 0.2 81
2020-04-03 01:00:00 8 12 Oeste 15 Oeste 0 940.1 0.8 80
2020-04-03 00:00:00 8.6 12 Oeste 18 Oeste 0 939.9 1.3 77
2020-04-02 23:00:00 8.4 10 Oeste 13 Oeste 0 939.8 1.5 79
2020-04-02 22:00:00 8.8 9 Oeste 15 Noroeste 0 939.3 1.2 80
2020-04-02 21:00:00 10.5 8 Noroeste 20 Noroeste 0 938.6 1 72
2020-04-02 20:00:00 12.9 12 Noroeste 21 Norte 0 938.3 0.8 60
2020-04-02 19:00:00 12.9 9 Norte 22 Norte 0 938.1 1 59
2020-04-02 18:00:00 13.1 12 Norte 25 Norte 0 937.6 0.4 55
2020-04-02 17:00:00 12.2 13 Nordeste 24 Norte 0 937.5 0.5 64
2020-04-02 16:00:00 11.2 10 Nordeste 27 Nordeste 0 937.1 0.4 66
2020-04-02 15:00:00 10.7 8 Norte 24 Norte 0 937.2 0.5 69
2020-04-02 14:00:00 9.1 13 Norte 23 Norte 0 937 1 77
2020-04-02 13:00:00 9.2 9 Nordeste 21 Nordeste 0 936.7 1.7 76
2020-04-02 12:00:00 7.6 8 Norte 21 Noroeste 0 936.7 2.2 85
2020-04-02 11:00:00 6.6 10 Norte 21 Norte 0 936 2.2 89
2020-04-02 10:00:00 6.2 6 Nordeste 12 Este 0 935 1.2 94
2020-04-02 09:00:00 5.5 6 Nordeste 13 Nordeste 0 934.5 0.7 94
2020-04-02 08:00:00 5.6 5 Norte 12 Noroeste 0 933.8 -0.2 93
2020-04-02 07:00:00 5.3 2 Noroeste 8 Este 0 933.8 -0.4 92
2020-04-02 06:00:00 6.2 3 Norte 12 Oeste 0.2 933.8 -1 93
2020-04-02 05:00:00 6.4 5 Oeste 10 Oeste 0 934 -1.1 92
2020-04-02 04:00:00 6.4 7 Sudeste 14 Sur 0 934.2 -1.1 90
2020-04-02 03:00:00 6.5 5 Este 23 Sur 0.4 934.8 -1.1 90
2020-04-02 02:00:00 7.2 17 Sur 39 Sur 3.2 935.1 -0.9 90
2020-04-02 01:00:00 7.6 24 Sur 35 Sudeste 1 935.3 -0.5 91
2020-04-02 00:00:00 7.8 20 Sur 35 Sudeste 0 935.9 0.3 88
2020-04-01 23:00:00 7.6 18 Sur 31 Sur 0 936 0.4 87
2020-04-01 22:00:00 7.7 20 Sur 31 Sudeste 0 935.8 0 86
2020-04-01 21:00:00 7.7 16 Sur 23 Sur 0 935.6 -0.5 85
2020-04-01 20:00:00 8.5 13 Sur 26 Sudeste 0 935.6 -0.6 83
2020-04-01 19:00:00 9 11 Sur 24 Sudoeste 0.2 935.8 -0.6 78
2020-04-01 18:00:00 8.7 16 Sur 25 Sur 0 936.1 0 81
2020-04-01 17:00:00 9 15 Sur 33 Sudoeste 0.6 936.2 -0.5 88
2020-04-01 16:00:00 8.8 23 Sudoeste 40 Sudoeste 0.2 936.4 -0.6 82
2020-04-01 15:00:00 11.2 13 Sudoeste 26 Sudoeste 0 936.1 -1 61
2020-04-01 14:00:00 11.3 17 Sudoeste 28 Sudoeste 0 936.7 -0.1 58
2020-04-01 13:00:00 11.7 12 Sur 22 Sur 0 937 0.4 63
2020-04-01 12:00:00 10 10 Sudoeste 20 Oeste 0 937.1 1 63
2020-04-01 11:00:00 8.3 12 Sudoeste 17 Sudoeste 0 936.8 1.5 66
2020-04-01 10:00:00 6.5 8 Sudoeste 12 Sudoeste 0 936.6 1.6 80
2020-04-01 09:00:00 4.1 6 Sudoeste 11 Noroeste 0 936.1 1.3 92
2020-04-01 08:00:00 3.7 3 Oeste 11 Sudeste 0 935.3 0.5 86
2020-04-01 07:00:00 3.3 5 Sur 6 Sur 0.2 935 0.2 92
2020-04-01 06:00:00 3.2 4 Sur 7 Oeste 0 934.8 0.1 91
2020-04-01 05:00:00 4.1 6 Sudoeste 9 Sudoeste 0 934.8 -0.2 90
2020-04-01 04:00:00 4.8 7 Sudoeste 12 Oeste 0 934.8 0.1 90
2020-04-01 03:00:00 5.4 5 Sudoeste 14 Oeste 0 934.7 0.5 90
2020-04-01 02:00:00 6.1 9 Oeste 14 Oeste 0 935 1.1 92
2020-04-01 01:00:00 5.9 9 Oeste 18 Oeste 0 934.7 2 91
2020-04-01 00:00:00 6.7 8 Oeste 13 Oeste 0 934.2 2.4 92
2020-03-31 23:00:00 7 6 Oeste 10 Sudoeste 0 933.9 2.9 91
2020-03-31 22:00:00 7.7 8 Sudoeste 13 Oeste 0 932.7 2.6 89
2020-03-31 21:00:00 9.2 8 Oeste 19 Sudoeste 0 931.8 2.1 88
2020-03-31 20:00:00 9.6 13 Sudoeste 27 Sur 1 931 2 89
2020-03-31 19:00:00 10.1 15 Sudoeste 25 Sudoeste 0.2 930.1 1.5 88
2020-03-31 18:00:00 10.6 13 Sudoeste 26 Oeste 0.6 929.7 1.2 88
2020-03-31 17:00:00 10.7 13 Sudoeste 51 Oeste 4.2 929 0.3 86
2020-03-31 16:00:00 12 -- -- -- -- 0 928.6 0 77
2020-03-31 15:00:00 13 24 Sur 42 Sur 0 928.5 -0.2 76
2020-03-31 14:00:00 11.6 19 Sur 34 Sur 0.2 928.7 0.3 82
2020-03-31 13:00:00 12.4 22 Sur 36 Sudoeste 0 928.6 0.7 78
2020-03-31 12:00:00 11.5 18 Sur 32 Sur 0 928.7 1.6 86
2020-03-31 11:00:00 10 19 Sudoeste 28 Sudoeste 0 928.4 2.4 88
2020-03-31 10:00:00 9.3 12 Sudoeste 27 Sudoeste 0.2 927.9 2 94
2020-03-31 09:00:00 8.4 20 Sudoeste 37 Sur 0.6 927.1 0.7 94
2020-03-31 08:00:00 8.5 21 Sur 42 Sur 2.2 926 -1 94
2020-03-31 07:00:00 8 11 Este 17 Este 3 925.9 -1.5 95
2020-03-31 06:00:00 7.9 9 Este 21 Sudeste 4.6 926.4 -1.6 95
2020-03-31 05:00:00 8.1 16 Sudeste 31 Sudeste 2.8 927 -1.5 93
2020-03-31 04:00:00 8.2 22 Sudeste 40 Sudeste 0.8 927.4 -2.4 92
2020-03-31 03:00:00 8.1 23 Sur 36 Sudeste 0 928 -2.5 91
2020-03-31 02:00:00 8.2 24 Sudeste 48 Sudeste 0 928.5 -2.3 91
2020-03-31 01:00:00 8.2 30 Sur 44 Sur 0 929.8 -1.7 87
2020-03-31 00:00:00 8.2 21 Sur 34 Sudeste 0 930.5 -1.2 80
2020-03-30 23:00:00 8.2 21 Sudeste 32 Sur 0 930.8 -1.9 81
2020-03-30 22:00:00 7.8 22 Sur 31 Sur 0 931.5 -1.7 82
2020-03-30 21:00:00 7.7 18 Sur 27 Sur 0.2 931.7 -2 84
2020-03-30 20:00:00 8.3 14 Sur 20 Sur 0.6 932.7 -0.8 87
2020-03-30 19:00:00 8.5 8 Sudoeste 17 Oeste 2.4 933.2 -0.7 90
2020-03-30 18:00:00 8.8 12 Oeste 29 Sudoeste 2.8 933.7 -1 90
2020-03-30 17:00:00 10.8 21 Sudoeste 29 Sudoeste 0.2 933.5 -2.1 74
2020-03-30 16:00:00 13.4 12 Sur 27 Sur 0 933.9 -2 63
2020-03-30 15:00:00 13.9 12 Sur 29 Sur 0 934.7 -1.9 58
2020-03-30 14:00:00 13.3 16 Sudoeste 24 Sur 0 935.6 -1 74
2020-03-30 13:00:00 13.8 14 Sur 22 Sur 0 935.9 -1 71
2020-03-30 12:00:00 13.5 7 Sur 15 Sudeste 0 936.6 -0.5 72
2020-03-30 11:00:00 11.9 9 Sur 21 Sur 0 936.6 -0.5 80
2020-03-30 10:00:00 10.5 9 Sudoeste 15 Sudoeste 0 936.9 -0.2 84
2020-03-30 09:00:00 9.5 10 Sudoeste 13 Sudoeste 0 937.1 -0.3 89
2020-03-30 08:00:00 8.4 12 Sudoeste 14 Sudoeste 0 937.1 -1 89
2020-03-30 07:00:00 8.3 10 Sudoeste 13 Sudoeste 0 937.1 -1.6 88
2020-03-30 06:00:00 8.7 9 Sudoeste 13 Sudoeste 0 937.4 -1.8 86
2020-03-30 05:00:00 8.6 13 Sudoeste 17 Sudoeste 0 938.1 -1.7 84
2020-03-30 04:00:00 9.2 9 Sudoeste 13 Sudoeste 0 938.7 -1.7 81
2020-03-30 03:00:00 9.4 7 Sudoeste 10 Sudoeste 0 939.2 -1.4 79
2020-03-30 02:00:00 9.1 3 Sur 5 Sur 0 939.8 -1.2 80
2020-03-30 01:00:00 10.3 2 Oeste 9 Norte 0 940.4 -0.5 79
2020-03-30 00:00:00 10.7 6 Oeste 12 Oeste 0 940.6 0.2 79
2020-03-29 23:00:00 10.9 9 Oeste 17 Sudoeste 0 941 0.6 80
2020-03-29 22:00:00 11.6 12 Sudoeste 22 Sudoeste 0 940.9 0.3 74
2020-03-29 21:00:00 12.1 9 Sudoeste 17 Sudoeste 0 940.4 -0.3 74
2020-03-29 20:00:00 13.5 7 Sudoeste 13 Sudoeste 0 940.4 -0.7 65
2020-03-29 19:00:00 15.1 6 Sudoeste 13 Sudoeste 0 940.6 -1 58
2020-03-29 18:00:00 14.9 7 Sudoeste 12 Sudoeste 0 940.7 -1.4 55
2020-03-29 17:00:00 15.6 5 Sur 9 Sudoeste 0 941.1 -1.5 51
2020-03-29 16:00:00 15.9 4 Sudoeste 9 Sudoeste 0 941.6 -1.3 52
2020-03-29 15:00:00 15.6 3 Sudeste 10 Sudeste 0 942.1 -1.2 53
2020-03-29 14:00:00 15.2 3 Oeste 9 Oeste 0 942.6 -0.6 57
2020-03-29 13:00:00 15.2 7 Nordeste 13 Este 0 942.9 0 56
2020-03-29 12:00:00 13.8 5 Nordeste 12 Noroeste 0 943.3 0.5 60
2020-03-29 11:00:00 12.9 6 Noroeste 13 Norte 0 943.2 0.7 66
2020-03-29 10:00:00 10.6 5 Oeste 13 Oeste 0 942.9 0.8 80
2020-03-29 09:00:00 7.7 7 Sudoeste 12 Oeste 0 942.8 0.7 87
2020-03-29 08:00:00 7.3 9 Oeste 15 Oeste 0 942.5 0.2 86
2020-03-29 07:00:00 7.6 9 Sudoeste 15 Sudoeste 0 942.1 -0.5 83
2020-03-29 06:00:00 7.9 9 Sudoeste 13 Sudoeste 0 942.1 -0.8 81
2020-03-29 05:00:00 8.6 11 Sudoeste 14 Sudoeste 0 942.3 -0.7 78
2020-03-29 03:00:00 8.9 12 Sudoeste 17 Sudoeste 0 942.9 0.3 69
2020-03-29 01:00:00 9 14 Sudoeste 17 Sudoeste 0 943 0.6 71
2020-03-29 00:00:00 8.7 13 Sudoeste 16 Sur 0 942.9 0.9 71
2020-03-28 23:00:00 8.5 13 Sudoeste 15 Sudoeste 0 942.6 1.4 71
2020-03-28 22:00:00 8.1 10 Sur 12 Sudoeste 0 942.4 1.6 73
2020-03-28 21:00:00 9.4 11 Sudoeste 13 Sudoeste 0 942 1.6 70
2020-03-28 20:00:00 10.4 5 Sudeste 8 Sudeste 0 941.2 1 68
2020-03-28 19:00:00 13.1 8 Sudeste 14 Sudeste 0 940.8 0.7 59
2020-03-28 18:00:00 14.5 6 Este 15 Sudeste 0 940.4 0.1 54
2020-03-28 17:00:00 14.5 6 Este 18 Este 0 940.2 -0.2 54
2020-03-28 16:00:00 14.1 6 Este 18 Este 0 940.1 -0.4 53
2020-03-28 15:00:00 14 11 Este 22 Este 0 940.3 -0.3 58
2020-03-28 14:00:00 14 12 Sudeste 19 Este 0 940.4 0 59
2020-03-28 13:00:00 13.1 14 Este 22 Este 0 940.5 0.4 63
2020-03-28 12:00:00 11.7 13 Este 21 Este 0 940.6 1.2 72
2020-03-28 11:00:00 10.3 18 Este 26 Este 0 940.4 1.7 74
2020-03-28 10:00:00 6.9 15 Este 22 Este 0 940.1 1.9 82
2020-03-28 09:00:00 4.4 14 Este 21 Este 0 939.4 1.6 86
2020-03-28 08:00:00 2.6 13 Este 17 Este 0 938.7 1 92
2020-03-28 07:00:00 1.7 11 Este 17 Este 0 938.2 0.7 93
2020-03-28 06:00:00 2.1 10 Este 17 Este 0 937.8 0.3 91
2020-03-28 05:00:00 2.5 13 Este 19 Sudeste 0 937.7 -0.1 91
2020-03-28 04:00:00 2.7 16 Este 23 Este 0 937.5 -0.3 90
2020-03-28 03:00:00 3.1 17 Sudeste 22 Este 0 937.5 -0.2 88
2020-03-28 02:00:00 3.4 15 Este 25 Este 0 937.8 0.3 87
2020-03-28 01:00:00 4.3 21 Este 27 Sudeste 0 937.8 0.8 83
2020-03-28 00:00:00 4.6 17 Este 26 Este 0 937.7 1.2 86
2020-03-27 23:00:00 5.7 18 Este 26 Este 0 937.5 1.9 82
2020-03-27 22:00:00 6.3 15 Este 21 Este 0 937 1.9 81
2020-03-27 21:00:00 7.8 13 Este 22 Este 0 936.5 1.9 76
2020-03-27 20:00:00 9.3 16 Este 23 Este 0 935.6 1.4 74
2020-03-27 19:00:00 10.2 13 Nordeste 19 Nordeste 0 935.1 1 73
2020-03-27 18:00:00 10.9 9 Nordeste 20 Nordeste 0 934.6 0.4 69
2020-03-27 17:00:00 11.8 8 Norte 22 Norte 0 934.2 0 68
2020-03-27 16:00:00 12.1 13 Norte 26 Norte 0 934.1 0.1 67
2020-03-27 15:00:00 11.4 9 Nordeste 19 Norte 0 934.2 0.1 70
2020-03-27 14:00:00 11.9 8 Nordeste 22 Norte 0 934.2 0.4 68
2020-03-27 13:00:00 11.8 5 Norte 14 Sudoeste 0 934 0.3 66
2020-03-27 12:00:00 10.6 10 Sudoeste 19 Sudoeste 0 934.1 0.7 72
2020-03-27 11:00:00 8.5 12 Oeste 17 Oeste 0 933.8 1.2 82
2020-03-27 10:00:00 5.7 6 Noroeste 14 Noroeste 0 933.7 1.3 90
2020-03-27 09:00:00 5 6 Noroeste 17 Oeste 0 933.4 1.3 94
2020-03-27 08:00:00 4.6 10 Oeste 17 Noroeste 0 932.6 0.5 95
2020-03-27 07:00:00 4.5 12 Oeste 18 Oeste 0 932.4 0.2 95
2020-03-27 06:00:00 4.7 15 Oeste 23 Oeste 0 932.1 -0.8 94
2020-03-27 05:00:00 5.1 15 Oeste 22 Oeste 0 932.1 -1.6 95
2020-03-27 04:00:00 5.4 15 Oeste 24 Oeste 0 932.2 -2 94
2020-03-27 03:00:00 6 13 Sudoeste 17 Oeste 0 932.9 -1.8 93
2020-03-27 02:00:00 6.3 10 Sudoeste 18 Sudoeste 0 933.7 -1 91
2020-03-27 01:00:00 7 13 Sudoeste 18 Sudoeste 0 934.2 -0.5 89
2020-03-27 00:00:00 7.9 11 Sudoeste 16 Sudoeste 0 934.7 0.2 85
2020-03-26 23:00:00 8.4 10 Oeste 18 Oeste 0 934.7 0.5 82
2020-03-26 22:00:00 9.6 12 Oeste 20 Oeste 0 934.7 0.7 78
2020-03-26 21:00:00 10.6 13 Oeste 21 Noroeste 0 934.5 0.7 74
2020-03-26 20:00:00 12.5 17 Oeste 35 Oeste 0 934.2 0.1 63
2020-03-26 19:00:00 14.9 26 Oeste 39 Noroeste 0 934 -0.5 52
2020-03-26 18:00:00 16.3 25 Oeste 39 Oeste 0 933.8 -1.1 51
2020-03-26 17:00:00 17.2 23 Noroeste 37 Oeste 0 934.1 -1.3 50
2020-03-26 16:00:00 17.4 23 Noroeste 36 Noroeste 0 934.5 -1.5 52
2020-03-26 15:00:00 17.5 24 Noroeste 36 Noroeste 0 934.9 -1.5 50
2020-03-26 14:00:00 17.9 21 Noroeste 33 Noroeste 0 935.4 -1.3 47
2020-03-26 13:00:00 16.8 21 Noroeste 34 Norte 0 936 -0.8 45
2020-03-26 12:00:00 15 18 Noroeste 29 Noroeste 0 936.4 -0.3 62
2020-03-26 11:00:00 13.5 19 Noroeste 27 Noroeste 0 936.7 0.2 68
2020-03-26 10:00:00 11.6 14 Noroeste 25 Noroeste 0 936.8 0.6 77
2020-03-26 09:00:00 8.5 12 Oeste 21 Oeste 0 936.7 0.3 95
2020-03-26 08:00:00 7.6 14 Oeste 20 Oeste 0 936.5 -0.1 95
2020-03-26 07:00:00 7.7 13 Sudoeste 22 Sudoeste 0 936.2 -1 95
2020-03-26 06:00:00 8.2 13 Sudoeste 21 Sudoeste 0 936.4 -1.4 95
2020-03-26 05:00:00 8.8 14 Sudoeste 22 Sudoeste 0 936.6 -1.7 95
2020-03-26 04:00:00 9.3 13 Sudoeste 27 Oeste 0 937.2 -1.5 95
2020-03-26 03:00:00 9.7 18 Oeste 28 Oeste 0 937.8 -1.5 94
2020-03-26 02:00:00 10.1 16 Oeste 28 Oeste 0 938.3 -1.1 93
2020-03-26 01:00:00 10.6 22 Oeste 38 Oeste 0 938.7 -0.7 93
2020-03-26 00:00:00 10.6 25 Oeste 37 Oeste 0 939.3 0.1 92
2020-03-25 23:00:00 10.7 17 Oeste 24 Oeste 0 939.4 0.5 88
2020-03-25 22:00:00 10.5 10 Sudoeste 15 Oeste 0 939.4 0.6 82
2020-03-25 21:00:00 11.3 10 Oeste 13 Oeste 0 939.2 0.4 73
2020-03-25 20:00:00 13.4 5 Noroeste 15 Noroeste 0 938.9 -0.1 60
2020-03-25 19:00:00 15.6 12 Noroeste 23 Noroeste 0 938.8 -0.5 52
2020-03-25 18:00:00 16.7 14 Noroeste 25 Norte 0 938.8 -0.9 48
2020-03-25 17:00:00 16.7 11 Norte 24 Norte 0 939 -1.4 46
2020-03-25 16:00:00 17.8 11 Noroeste 21 Noroeste 0 939.3 -1.6 40
2020-03-25 15:00:00 16.4 7 Norte 19 Noroeste 0 939.7 -1.3 47
2020-03-25 14:00:00 16.3 6 Norte 18 Noroeste 0 940.4 -0.5 48
2020-03-25 13:00:00 15.5 7 Nordeste 21 Norte 0 940.9 0.2 50
2020-03-25 12:00:00 14.1 10 Noroeste 18 Noroeste 0 941 0.7 60
2020-03-25 11:00:00 13.7 8 Noroeste 13 Noroeste 0 940.9 0.9 66
2020-03-25 10:00:00 11.3 5 Este 12 Este 0 940.7 1 73
2020-03-25 09:00:00 8.8 6 Este 13 Este 0 940.3 1.2 80
2020-03-25 08:00:00 7.4 10 Este 15 Este 0 940 0.9 87
2020-03-25 07:00:00 6.9 9 Este 15 Este 0 939.7 0.5 89
2020-03-25 06:00:00 7.9 13 Este 18 Sudeste 0 939.1 -0.1 84
2020-03-25 05:00:00 6.6 14 Sudeste 19 Este 0 939.1 0 90
2020-03-25 04:00:00 6.8 12 Este 18 Sudeste 0 939.2 0 90
2020-03-25 03:00:00 7.5 13 Este 18 Este 0 939.2 0.1 89
2020-03-25 02:00:00 8.3 13 Este 19 Sudeste 0 939.1 0 86
2020-03-25 01:00:00 7.8 14 Este 21 Sudeste 0 939.2 0.6 88
2020-03-25 00:00:00 8.1 17 Este 26 Este 0 939.1 1.2 87
2020-03-24 23:00:00 8.5 18 Este 23 Este 0 939.1 2.2 85
2020-03-24 22:00:00 9.6 15 Este 23 Este 0 938.6 2.4 81
2020-03-24 21:00:00 10.7 11 Este 26 Este 0 937.9 2.2 79
2020-03-24 20:00:00 12.5 17 Este 28 Nordeste 0 936.9 1.6 73
2020-03-24 19:00:00 14.2 18 Nordeste 29 Este 0 936.2 0.9 66
2020-03-24 18:00:00 14.5 18 Este 31 Este 0 935.7 0.4 65
2020-03-24 17:00:00 15 18 Nordeste 32 Nordeste 0 935.3 -0.2 64
2020-03-24 16:00:00 15.2 22 Este 37 Nordeste 0 935.3 -0.3 60
2020-03-24 15:00:00 14.9 23 Este 34 Este 0 935.3 -0.7 57
2020-03-24 14:00:00 14.4 21 Nordeste 39 Nordeste 0 935.5 -0.2 62
2020-03-24 13:00:00 14.2 24 Nordeste 41 Nordeste 0 935.6 0.1 64
2020-03-24 12:00:00 12.8 20 Nordeste 38 Este 0 936 0.6 67
2020-03-24 11:00:00 11.4 25 Nordeste 44 Nordeste 0 935.7 0.7 75
2020-03-24 10:00:00 10 31 Nordeste 44 Este 0 935.5 0.2 83
2020-03-24 09:00:00 8.6 19 Este 30 Este 0.2 935.4 0.1 91
2020-03-24 08:00:00 6.6 15 Este 23 Este 0 935 -0.3 95
2020-03-24 07:00:00 6 10 Este 19 Este 0 935.3 -0.5 95
2020-03-24 06:00:00 7 10 Este 15 Este 0 935.3 -0.6 95
2020-03-24 05:00:00 7.5 8 Este 18 Este 0 935.3 -1 95
2020-03-24 04:00:00 6.9 9 Nordeste 16 Este 0 935.8 -0.7 95
2020-03-24 03:00:00 7.1 10 Este 15 Este 0 935.9 -0.9 94
2020-03-24 02:00:00 6.6 5 Este 11 Este 0 936.3 -0.7 92
2020-03-24 01:00:00 7.4 5 Este 9 Este 0 936.5 -0.4 90
2020-03-24 00:00:00 8 5 Este 11 Nordeste 0 936.8 0.5 88
2020-03-23 23:00:00 8.1 9 Sudeste 17 Sudeste 0.2 937 1.2 88
2020-03-23 22:00:00 8.5 12 Este 37 Sudeste 0.2 936.9 1.3 86
2020-03-23 21:00:00 10.2 5 Este 8 Este 0 936.3 0.8 77
2020-03-23 20:00:00 10.2 5 Sudeste 30 Este 0.2 935.8 0.3 78
2020-03-23 19:00:00 12.4 11 Nordeste 23 Nordeste 0 935.6 -0.4 62
2020-03-23 18:00:00 11.7 9 Nordeste 20 Nordeste 0 935.5 -0.5 62
2020-03-23 17:00:00 10.2 6 Nordeste 22 Nordeste 0.4 935.5 -1.2 72
2020-03-23 16:00:00 9.9 7 Nordeste 35 Este 0.2 936 -1.2 73
2020-03-23 15:00:00 13.2 13 Este 27 Sudeste 0 936 -1.5 58
2020-03-23 14:00:00 11.4 25 Sudeste 35 Este 0 936.7 -0.9 73
2020-03-23 13:00:00 11.7 14 Este 28 Este 0 937.2 -0.4 67
2020-03-23 12:00:00 11.2 14 Nordeste 24 Este 0 937.5 0.4 71
2020-03-23 11:00:00 10.1 16 Este 23 Este 0 937.6 0.7 72
2020-03-23 10:00:00 8.4 13 Este 21 Este 0 937.6 1.1 83
2020-03-23 09:00:00 7.5 13 Este 18 Este 0 937.1 0.8 92
2020-03-23 08:00:00 6.9 6 Este 11 Este 0 936.9 0.6 93
2020-03-23 07:00:00 7.2 8 Nordeste 12 Nordeste 0 936.5 0.3 93
2020-03-23 06:00:00 7.2 7 Este 10 Este 0 936.3 -0.1 91
2020-03-23 05:00:00 7.7 6 Este 11 Este 0.2 936.3 -0.2 90
2020-03-23 04:00:00 7.9 7 Este 10 Este 0 936.2 -0.7 89
2020-03-23 03:00:00 8.2 3 Sudoeste 5 Este 0 936.4 -0.9 86
2020-03-23 02:00:00 8.3 0 Calma 6 Este 0 936.5 -0.6 85
2020-03-23 01:00:00 8.5 5 Este 8 Este 0.2 936.9 -0.1 85
2020-03-23 00:00:00 8.8 8 Nordeste 13 Nordeste 0 937.3 0.7 78
2020-03-22 23:00:00 8.7 3 Norte 5 Norte 0 937.1 1.1 85
2020-03-22 22:00:00 9.2 3 Este 10 Este 0 937 1.5 84
2020-03-22 21:00:00 9.5 5 Este 13 Este 0 936.6 1.6 83
2020-03-22 20:00:00 10.5 9 Este 14 Noroeste 0 936 1.1 76
2020-03-22 19:00:00 11.6 7 Noroeste 18 Noroeste 0 935.5 0.6 62
2020-03-22 18:00:00 12.2 3 Norte 20 Noroeste 0 935 0 63
2020-03-22 17:00:00 12.1 5 Nordeste 19 Nordeste 0 934.9 -0.7 59
2020-03-22 16:00:00 12.9 8 Este 26 Nordeste 0 934.9 -0.9 58
2020-03-22 15:00:00 12 13 Norte 26 Norte 0 935 -0.8 67
2020-03-22 14:00:00 10.5 12 Nordeste 24 Nordeste 0 935.6 0 70
2020-03-22 13:00:00 10 11 Este 25 Sudeste 0 935.8 0.5 72
2020-03-22 12:00:00 10.3 15 Este 25 Este 0 935.8 0.8 76
2020-03-22 11:00:00 9.5 15 Este 28 Este 0 935.6 1.3 77
2020-03-22 10:00:00 7 13 Este 23 Este 0 935.3 1.3 90
2020-03-22 09:00:00 5.6 11 Este 17 Este 0 935 1.1 93
2020-03-22 08:00:00 5.3 9 Este 17 Este 0 934.3 0.5 94
2020-03-22 07:00:00 5.5 11 Este 15 Este 0 934 0.3 95
2020-03-22 06:00:00 5.3 8 Este 12 Este 0 933.9 0.2 95
2020-03-22 05:00:00 5.1 10 Este 13 Este 0 933.8 -0.3 94
2020-03-22 04:00:00 5.3 9 Este 14 Este 0 933.7 -0.5 94
2020-03-22 03:00:00 5.5 8 Este 17 Este 0 933.7 -0.9 94
2020-03-22 02:00:00 5.9 8 Este 17 Sudeste 0 934.1 -0.5 91
2020-03-22 01:00:00 6.2 7 Sur 13 Sur 0 934.2 -0.1 89
2020-03-22 00:00:00 5.8 9 Sur 21 Sudoeste 0 934.6 0.6 91
2020-03-21 23:00:00 6.1 14 Sudoeste 25 Sur 0 934.6 1.1 90
2020-03-21 22:00:00 6.1 13 Sur 19 Sur 0 934.3 1.1 89
2020-03-21 21:00:00 6.4 4 Sudoeste 13 Sudoeste 0.2 934 0.8 91
2020-03-21 20:00:00 6.4 5 Oeste 9 Oeste 0.2 933.5 0.1 88
2020-03-21 19:00:00 6.6 2 Sur 18 Sudeste 2.2 933.2 -0.6 86
2020-03-21 18:00:00 6.4 12 Sudeste 26 Sudeste 2.8 933.2 -1.1 89
2020-03-21 17:00:00 6.7 20 Sudeste 36 Sudeste 0.8 933.4 -1.7 89
2020-03-21 16:00:00 7.2 28 Sur 41 Sur 0.2 933.8 -2 86
2020-03-21 15:00:00 8.6 25 Sur 41 Sudeste 0.6 934.3 -1.8 83
2020-03-21 14:00:00 9.6 14 Sudeste 31 Sudeste 0 935.1 -1.1 77
2020-03-21 13:00:00 10.8 17 Sudeste 33 Sur 0 935.8 -0.7 70
2020-03-21 12:00:00 10.7 22 Sur 36 Sur 0 936.1 0 73
2020-03-21 11:00:00 10 22 Sur 32 Sur 0 936.2 0.3 77
2020-03-21 10:00:00 8.7 18 Sur 32 Sur 0 936.5 1.1 83
2020-03-21 09:00:00 7 21 Sur 29 Sur 0 936.1 0.5 87
2020-03-21 08:00:00 5.2 10 Sudoeste 23 Sudoeste 0.2 935.9 0.4 92
2020-03-21 07:00:00 5.7 15 Sudoeste 20 Sudoeste 0 935.4 0.1 92
2020-03-21 06:00:00 6.4 9 Sudoeste 25 Sudoeste 0 935.6 -0.2 92
2020-03-21 05:00:00 7.1 13 Oeste 25 Oeste 0.2 935.5 -0.1 93
2020-03-21 04:00:00 7.5 9 Sudoeste 31 Sudoeste 3.4 935.3 -0.2 88
2020-03-21 03:00:00 8.5 10 Sudoeste 15 Sudoeste 5.2 935.8 -0.5 93
2020-03-21 02:00:00 9.1 11 Sudoeste 40 Sur 6.6 935.6 -0.7 92
2020-03-21 01:00:00 10.3 23 Sur 42 Sur 1.8 935.5 -0.5 92
2020-03-21 00:00:00 10.2 21 Sur 47 Sur 5.6 936.3 0.5 91
2020-03-20 23:00:00 11.1 22 Sur 33 Sudoeste 1 936.3 0.4 90
2020-03-20 22:00:00 12.4 17 Sudeste 30 Sudeste 0 936 -0.1 81
2020-03-20 21:00:00 12.6 13 Sudeste 23 Sur 0 935.8 -0.5 80
2020-03-20 20:00:00 13.1 18 Sudeste 25 Sudeste 0 935.9 -0.7 76
2020-03-20 19:00:00 13.4 14 Sudeste 18 Sudeste 0 936.1 -1 76
2020-03-20 18:00:00 14 9 Sur 22 Sudeste 0 936.3 -1.4 78
2020-03-20 17:00:00 13.9 15 Sudeste 27 Sudeste 0 936.6 -1.5 81
2020-03-20 16:00:00 13 18 Sur 31 Sur 0.8 937.1 -1.5 83
2020-03-20 15:00:00 12.2 18 Sur 26 Sur 1.2 937.7 -1.1 85
2020-03-20 14:00:00 13.6 18 Sur 27 Sur 0 938.1 -1 78
2020-03-20 13:00:00 13.8 18 Sur 25 Sur 0 938.6 -0.3 68
2020-03-20 12:00:00 14 17 Sudeste 31 Sudeste 0 938.8 0.5 69
2020-03-20 11:00:00 13.6 18 Sudeste 35 Sudeste 0 939.1 1 72
2020-03-20 10:00:00 12 25 Sudeste 32 Sudeste 0 938.9 1.1 83
2020-03-20 09:00:00 11.3 21 Sudeste 26 Sudeste 0 938.3 0.7 86
2020-03-20 08:00:00 10.5 13 Sur 22 Sur 0 938.1 0.4 88
2020-03-20 07:00:00 10.4 18 Sur 24 Sur 0 937.8 -0.3 86
2020-03-20 06:00:00 10.5 16 Sur 22 Sur 0 937.6 -1 85
2020-03-20 05:00:00 11.2 4 Sudoeste 13 Sudoeste 0 937.7 -1.2 80
2020-03-20 04:00:00 11.4 3 Este 17 Sudeste 0 938.1 -1 81
2020-03-20 03:00:00 11.7 10 Este 22 Sur 0 938.6 -0.8 80
2020-03-20 02:00:00 13.2 17 Sur 30 Sur 0 938.9 -0.5 72
2020-03-20 01:00:00 12.6 20 Sur 27 Sur 0 939.1 -0.2 75
2020-03-20 00:00:00 13 21 Sur 26 Sur 0 939.4 0 73
2020-03-19 23:00:00 13.1 13 Sur 18 Sur 0 939.4 0 71
2020-03-19 22:00:00 12.8 6 Sur 10 Sudeste 0 939.3 -0.1 74
2020-03-19 21:00:00 12.4 9 Sudeste 10 Sudeste 0 939.4 0 72
2020-03-19 20:00:00 13.1 9 Sudeste 10 Sudeste 0 939.4 -0.3 72
2020-03-19 19:00:00 14.5 9 Sudeste 13 Este 0 939.4 -0.5 70
2020-03-19 18:00:00 16.1 9 Este 16 Este 0 939.4 -1 61
2020-03-19 17:00:00 16.7 12 Este 18 Sudeste 0 939.7 -1.6 57
2020-03-19 16:00:00 16.6 11 Sudeste 15 Sudeste 0 939.9 -2.1 59
2020-03-19 15:00:00 16.7 10 Sudeste 19 Este 0 940.4 -2.1 58
2020-03-19 14:00:00 16.5 9 Este 20 Este 0 941.3 -1.5 60
2020-03-19 13:00:00 15.5 10 Este 20 Este 0 942 -0.9 61
2020-03-19 12:00:00 14.6 16 Este 25 Este 0 942.5 -0.3 67
2020-03-19 11:00:00 13.3 18 Este 23 Sudeste 0 942.8 0.1 73
2020-03-19 10:00:00 11.4 14 Este 20 Este 0 942.9 0.2 76
2020-03-19 09:00:00 8.8 14 Este 23 Sudeste 0 942.8 -0.1 86
2020-03-19 08:00:00 7.6 15 Este 21 Este 0 942.7 -0.2 90
2020-03-19 07:00:00 8.1 9 Este 14 Este 0 942.7 -0.6 89
2020-03-19 06:00:00 7.4 9 Este 11 Este 0 942.9 -0.5 88
2020-03-19 05:00:00 8.3 4 Este 7 Nordeste 0 942.9 -0.6 84
2020-03-19 04:00:00 9.4 6 Este 10 Nordeste 0 943.3 -0.1 80
2020-03-19 03:00:00 10 4 Este 18 Sudeste 0 943.4 -0.4 79
2020-03-19 02:00:00 10.6 15 Sudeste 26 Sudeste 0 943.5 -0.5 76
2020-03-19 01:00:00 10.1 15 Sudeste 19 Sudeste 0 943.4 -0.5 79
2020-03-19 00:00:00 10.8 17 Sudeste 26 Sudeste 0 943.8 0 76
2020-03-18 23:00:00 11.4 19 Sudeste 32 Sudeste 0 944 0.7 74
2020-03-18 22:00:00 12 18 Este 27 Este 0 943.9 1.1 74
2020-03-18 21:00:00 12.5 9 Este 19 Este 0 943.8 1.1 76
2020-03-18 20:00:00 14.9 14 Este 28 Este 0 943.3 0.5 65
2020-03-18 19:00:00 18 10 Nordeste 24 Este 0 942.8 -0.5 50
2020-03-18 18:00:00 19.1 19 Este 30 Nordeste 0 942.7 -0.8 41
2020-03-18 17:00:00 19.4 21 Este 31 Este 0 942.8 -1.3 42
2020-03-18 16:00:00 19.1 19 Este 31 Este 0 943.3 -1.4 48
2020-03-18 15:00:00 18.1 21 Este 33 Este 0 943.5 -1.4 56
2020-03-18 14:00:00 16.9 25 Este 36 Este 0 944.1 -0.9 57
2020-03-18 13:00:00 15.1 25 Este 37 Este 0 944.7 -0.2 64
2020-03-18 12:00:00 14.4 24 Este 35 Este 0 944.9 0.2 71
2020-03-18 11:00:00 12.8 21 Este 33 Este 0 945 0.5 74
2020-03-18 10:00:00 10.4 21 Este 30 Este 0 944.9 0.9 83
2020-03-18 09:00:00 8.8 18 Este 26 Este 0 944.7 0.7 89
2020-03-18 08:00:00 8.2 18 Este 28 Este 0 944.5 1 88
2020-03-18 07:00:00 7.9 18 Este 27 Este 0 944 0.1 90
2020-03-18 06:00:00 7.9 14 Este 26 Este 0 944 -0.5 92
2020-03-18 05:00:00 7.9 18 Este 23 Este 0 943.5 -0.9 94
2020-03-18 04:00:00 8.1 10 Este 20 Este 0 943.9 -0.6 92
2020-03-18 03:00:00 9 16 Este 22 Este 0 944.5 0 92
2020-03-18 02:00:00 8.9 14 Este 21 Este 0 944.4 -0.1 89
2020-03-18 01:00:00 8.8 13 Este 19 Este 0 944.5 -0.3 85
2020-03-18 00:00:00 9.1 14 Este 22 Este 0 944.5 -0.2 81
2020-03-17 23:00:00 8.4 11 Este 21 Nordeste 0 944.5 -0.2 79
2020-03-17 22:00:00 8.9 11 Este 17 Nordeste 0 944.8 0.5 77
2020-03-17 21:00:00 10.6 8 Nordeste 20 Este 0.2 944.7 0.8 67
2020-03-17 20:00:00 10.8 11 Este 17 Este 0 944.7 1.2 59
2020-03-17 19:00:00 12.5 11 Este 36 Este 0 944.3 0.8 49
2020-03-17 18:00:00 13.8 26 Este 41 Nordeste 0 943.9 0.3 41
2020-03-17 17:00:00 14.7 27 Este 48 Este 0 943.5 -0.2 37
2020-03-17 16:00:00 13.1 22 Este 34 Este 0 943.5 -0.6 48
2020-03-17 15:00:00 12.3 23 Este 43 Este 0 943.6 -0.4 51
2020-03-17 14:00:00 13.1 27 Sudeste 45 Este 0 943.7 0.2 52
2020-03-17 13:00:00 10.6 28 Sudeste 45 Este 0 944.1 1.3 64
2020-03-17 12:00:00 9.7 25 Este 41 Este 0 944 2.1 71
2020-03-17 11:00:00 8.1 30 Este 42 Sudeste 0 943.5 2.5 81
2020-03-17 10:00:00 6.1 26 Este 38 Este 0 942.8 2.1 89
2020-03-17 09:00:00 4.6 25 Este 37 Este 0 941.9 1.7 93
2020-03-17 08:00:00 4.2 21 Este 29 Este 0.2 941 1.4 95
2020-03-17 07:00:00 3.9 13 Este 25 Este 0.8 940.7 1.4 95
2020-03-17 06:00:00 2.9 8 Este 26 Este 1.8 940.2 0.9 94
2020-03-17 05:00:00 3.7 13 Este 21 Este 0 939.6 0.3 94
2020-03-17 04:00:00 3.5 13 Este 22 Este 0 939.3 -0.2 94
2020-03-17 03:00:00 3.8 17 Este 24 Este 0 939.3 -0.4 94
2020-03-17 02:00:00 4.1 8 Nordeste 17 Nordeste 0.2 939.3 -0.3 93
2020-03-17 01:00:00 4 9 Norte 15 Norte 0 939.5 0.2 93
2020-03-17 00:00:00 4 6 Norte 18 Noroeste 0 939.7 0.7 92
2020-03-16 23:00:00 4.1 8 Norte 20 Norte 0 939.6 1.2 91
2020-03-16 22:00:00 4.8 8 Norte 31 Norte 0.4 939.3 0.9 92
2020-03-16 21:00:00 4.2 18 Norte 45 Noroeste 2.8 939 1 92
2020-03-16 20:00:00 4.9 23 Noroeste 49 Noroeste 1.2 938.4 0.5 92
2020-03-16 19:00:00 5.3 31 Noroeste 53 Noroeste 0.4 938.4 0.4 87
2020-03-16 18:00:00 6.3 27 Noroeste 55 Noroeste 0 938 0 79
2020-03-16 17:00:00 8.7 35 Noroeste 58 Noroeste 0 937.9 -0.4 59
2020-03-16 16:00:00 8.5 28 Noroeste 51 Noroeste 0 938 -0.5 56
2020-03-16 15:00:00 9.8 29 Noroeste 57 Noroeste 0 938 -0.7 52
2020-03-16 14:00:00 9.5 31 Noroeste 54 Noroeste 0 938.3 -1 53
2020-03-16 13:00:00 9.4 31 Noroeste 48 Noroeste 0 938.5 -0.9 52
2020-03-16 12:00:00 8.8 30 Noroeste 49 Noroeste 0 938.7 -0.4 54
2020-03-16 11:00:00 7.8 20 Noroeste 41 Noroeste 0 939.3 0.4 61
2020-03-16 10:00:00 5.8 26 Noroeste 41 Noroeste 0 939.4 0.9 67
2020-03-16 09:00:00 3.9 23 Noroeste 37 Oeste 0 939.1 1 80
2020-03-16 08:00:00 1.3 14 Oeste 21 Oeste 0 938.9 0.7 89
2020-03-16 07:00:00 1.8 14 Oeste 31 Noroeste 0 938.5 0.3 85
2020-03-16 06:00:00 2 17 Noroeste 28 Noroeste 0 938.1 -0.8 84
2020-03-16 05:00:00 2.8 19 Noroeste 35 Noroeste 0 938.2 -0.3 78
2020-03-16 04:00:00 3 19 Noroeste 34 Noroeste 0 938.2 -1 79
2020-03-16 03:00:00 3.4 21 Noroeste 53 Noroeste 0 938.9 -0.4 81
2020-03-16 02:00:00 4.8 35 Noroeste 53 Noroeste 0 938.5 -0.8 78
2020-03-16 01:00:00 6.8 28 Noroeste 41 Noroeste 0 939.2 0.2 68
2020-03-16 00:00:00 8.2 27 Noroeste 45 Noroeste 0 939.3 1 71
2020-03-15 23:00:00 10 22 Noroeste 44 Noroeste 0 939.3 1.7 77
2020-03-15 22:00:00 12.3 21 Noroeste 35 Oeste 0 939 1.7 64
2020-03-15 21:00:00 13.4 22 Oeste 34 Noroeste 0 938.3 1.1 80
2020-03-15 20:00:00 14 15 Oeste 32 Oeste 0 937.6 0 78
2020-03-15 19:00:00 16.3 23 Oeste -- -- 1.4 937.3 -0.7 64
2020-03-15 18:00:00 18.2 18 Oeste 33 Sudoeste 0 937.2 -1.3 56
2020-03-15 17:00:00 19.6 18 Sudoeste 33 Sudoeste 0 937.6 -1.9 51
2020-03-15 16:00:00 19.8 17 Sudoeste 34 Sudoeste 0 938 -2.3 49
2020-03-15 15:00:00 21 14 Sudoeste 25 Sudoeste 0 938.5 -2.3 52
2020-03-15 14:00:00 20.6 10 Oeste 22 Sur 0 939.5 -1.5 54
2020-03-15 13:00:00 19.4 13 Sudoeste 20 Sudoeste 0 940.3 -0.6 59
2020-03-15 12:00:00 18.7 11 Sudoeste 24 Sudoeste 0 940.8 0 64
2020-03-15 11:00:00 17.6 16 Sudoeste 25 Sudoeste 0 941 0.5 70
2020-03-15 10:00:00 15.6 15 Sudoeste 23 Sur 0 940.9 0.5 77
2020-03-15 09:00:00 13.7 15 Sudoeste 22 Sur 0 940.8 0.5 84
2020-03-15 08:00:00 12.5 17 Sudoeste 24 Sur 0 940.5 0.1 87
2020-03-15 07:00:00 12.8 16 Sur 22 Sur 0 940.4 -0.3 84
2020-03-15 06:00:00 11.9 5 Sur 9 Sur 0 940.3 -0.8 74
2020-03-15 05:00:00 12.9 4 Sudoeste 6 Sudoeste 0 940.4 -1.2 69
2020-03-15 04:00:00 13.2 3 Sudoeste 6 Sudoeste 0 940.7 -1.2 67
2020-03-15 03:00:00 13.5 2 Sur 4 Sur 0 941.1 -1.3 66
2020-03-15 02:00:00 14 2 Sur 4 Sudeste 0 941.6 -0.9 64
2020-03-15 01:00:00 14.1 2 Sudoeste 6 Sudoeste 0 941.9 -0.6 66
2020-03-15 00:00:00 14.4 3 Sudoeste 5 Sudoeste 0 942.4 0 65
2020-03-14 23:00:00 15.2 3 Oeste 5 Noroeste 0 942.5 0.3 64
2020-03-14 22:00:00 15.8 4 Noroeste 9 Noroeste 0 942.5 0.6 67
2020-03-14 21:00:00 16.8 6 Noroeste 14 Sur 0 942.4 0.7 69
2020-03-14 20:00:00 17.3 14 Sur 16 Sur 0 942.2 0.6 68
2020-03-14 19:00:00 17.9 10 Sudoeste 21 Sur 0 941.9 0 65
2020-03-14 18:00:00 19.4 13 Sudoeste 16 Sudoeste 0 941.7 -0.8 58
2020-03-14 17:00:00 23 3 Sur 12 Nordeste 0 941.6 -1.6 40
2020-03-14 16:00:00 22.4 6 Este 13 Este 0 941.9 -1.8 41
2020-03-14 15:00:00 21.6 5 Este 11 Este 0 942.5 -1.6 44
2020-03-14 14:00:00 21.7 5 Noroeste 14 Oeste 0 943.2 -1.2 47
2020-03-14 13:00:00 20.7 8 Sur 18 Sudoeste 0 943.7 -0.6 55
2020-03-14 12:00:00 19.1 12 Sudoeste 20 Sudoeste 0 944.1 0.2 62
2020-03-14 11:00:00 16.8 4 Este 8 Nordeste 0 944.4 1.4 70
2020-03-14 10:00:00 14.6 3 Nordeste 15 Nordeste 0 944.3 1.4 80
2020-03-14 09:00:00 14.1 5 Nordeste 15 Sur 0 943.9 1.1 80
2020-03-14 08:00:00 10.6 5 Oeste 10 Sudoeste 0 943 0.4 90
2020-03-14 07:00:00 10.7 8 Sudoeste 9 Sudoeste 0 942.9 0.1 93
2020-03-14 06:00:00 10.5 5 Sudoeste 8 Oeste 0 942.8 -0.4 94
2020-03-14 05:00:00 10.4 4 Sudoeste 6 Sur 0 942.6 -0.6 92
2020-03-14 04:00:00 11 2 Norte 5 Norte 0 942.8 -0.6 92
2020-03-14 03:00:00 11.3 3 Noroeste 6 Noroeste 0 943.2 -0.2 91
2020-03-14 02:00:00 10.9 3 Oeste 13 Noroeste 0 943.2 -0.3 90
2020-03-14 01:00:00 11 5 Norte 8 Noroeste 0 943.4 0.2 87
2020-03-14 00:00:00 11.6 4 Noroeste 6 Norte 0 943.4 0.5 85
2020-03-13 23:00:00 12.3 5 Noroeste 8 Noroeste 0 943.5 1.3 83
2020-03-13 22:00:00 12.6 3 Sudoeste 7 Noroeste 0 943.2 1.3 81
2020-03-13 21:00:00 14.3 3 Noroeste 15 Norte 0 942.9 1.4 75
2020-03-13 20:00:00 15.3 7 Noroeste 19 Norte 0 942.2 0.8 70
2020-03-13 19:00:00 17.6 11 Norte 22 Norte 0 941.9 0.4 61
2020-03-13 18:00:00 19.2 13 Norte 25 Norte 0 941.5 -0.1 55
2020-03-13 17:00:00 20.7 13 Norte 26 Norte 0 941.4 -0.7 51
2020-03-13 16:00:00 21.3 16 Noroeste 29 Noroeste 0 941.5 -1 44
2020-03-13 15:00:00 21.2 17 Noroeste 30 Noroeste 0 941.6 -1.2 47
2020-03-13 14:00:00 21.3 19 Oeste 30 Noroeste 0 942.1 -0.8 44
2020-03-13 13:00:00 20.9 10 Oeste 27 Oeste 0 942.5 -0.3 44
2020-03-13 12:00:00 19.3 14 Sudoeste 24 Oeste 0 942.8 0.5 54
2020-03-13 11:00:00 17.7 12 Sudoeste 19 Oeste 0 942.9 1.1 67
2020-03-13 10:00:00 16.5 10 Sudoeste 15 Sudoeste 0 942.8 1 68
2020-03-13 09:00:00 14.7 6 Sudoeste 14 Sudoeste 0 942.3 0.6 77
2020-03-13 08:00:00 12.7 11 Sudoeste 14 Sudoeste 0 941.8 0 77
2020-03-13 07:00:00 12.3 12 Sudoeste 14 Sudoeste 0 941.8 0 82
2020-03-13 06:00:00 12.3 9 Sudoeste 14 Sudoeste 0 941.7 -0.6 81
2020-03-13 05:00:00 12.2 12 Sudoeste 15 Sudoeste 0 941.8 -0.8 81
2020-03-13 04:00:00 12.7 12 Sudoeste 15 Sudoeste 0 941.8 -1.2 78
2020-03-13 03:00:00 13.4 9 Oeste 10 Oeste 0 942.3 -1.1 75
2020-03-13 02:00:00 13.4 7 Sudoeste 13 Sudoeste 0 942.6 -0.7 75
2020-03-13 01:00:00 13.9 10 Sudoeste 12 Sudoeste 0 943 -0.1 72
2020-03-13 00:00:00 14.1 9 Sudoeste 15 Sudoeste 0 943.4 0.5 72
2020-03-12 23:00:00 14.8 11 Sudoeste 18 Sudoeste 0 943.3 0.7 69
2020-03-12 22:00:00 15.7 13 Sudoeste 19 Sudoeste 0 943.1 0.7 66
2020-03-12 21:00:00 15.3 12 Sudoeste 16 Sudoeste 0 942.9 0.6 68
2020-03-12 20:00:00 17 11 Sudoeste 21 Sudoeste 0 942.6 0.5 62
2020-03-12 19:00:00 18.8 9 Sudoeste 22 Sudoeste 0 942.4 0.2 58
2020-03-12 18:00:00 20.2 16 Sudoeste 26 Sudoeste 0 942.3 -0.2 51
2020-03-12 17:00:00 22 16 Sudoeste 39 Sudoeste 0 942.1 -0.9 38
2020-03-12 16:00:00 23.5 28 Sudoeste 42 Sudoeste 0 942.2 -1.6 32
2020-03-12 15:00:00 23.3 30 Sur 45 Sudoeste 0 942.5 -1.5 35
2020-03-12 14:00:00 22 31 Sur 44 Sudoeste 0 943 -1.1 40
2020-03-12 13:00:00 19.7 31 Sur 45 Sur 0 943.8 -0.3 42
2020-03-12 12:00:00 19 33 Sur 47 Sur 0 944 0.2 41
2020-03-12 11:00:00 18 33 Sur 48 Sur 0 944.1 0.4 45
2020-03-12 10:00:00 18.9 31 Sur 46 Sur 0 944.1 0.7 40
2020-03-12 09:00:00 17.8 26 Sur 43 Sur 0 943.8 0.2 39
2020-03-12 08:00:00 16.5 15 Sur 22 Sur 0 943.7 0.6 46
2020-03-12 07:00:00 17.3 14 Sur 24 Sur 0 943.4 -0.1 43
2020-03-12 06:00:00 18.2 16 Sur 48 Sudeste 0 943.6 -0.7 38
2020-03-12 05:00:00 19.5 36 Sur 47 Sur 0 943.1 -1.8 30
2020-03-12 04:00:00 19.4 32 Sur 45 Sudeste 0 943.5 -1.9 33
2020-03-12 03:00:00 19.7 31 Sur 42 Sur 0 944.3 -1.2 39
2020-03-12 02:00:00 20.3 31 Sur 42 Sur 0 944.9 -0.6 34
2020-03-12 01:00:00 20.2 26 Sur 44 Sudeste 0 945.4 -0.4 35
2020-03-12 00:00:00 21.5 32 Sur 42 Sudeste 0 945.5 -0.1 26
2020-03-11 23:00:00 17.7 19 Sudeste 34 Sur 0 945.5 -0.2 36
2020-03-11 22:00:00 20.9 26 Sudeste 35 Sudeste 0 945.8 -0.1 29
2020-03-11 21:00:00 20.5 23 Sudeste 29 Sudeste 0 945.6 -0.3 33
2020-03-11 20:00:00 18.8 10 Sudeste 22 Sur 0 945.7 -0.4 43
2020-03-11 19:00:00 21.2 11 Sur 17 Sur 0 945.9 -0.5 40
2020-03-11 18:00:00 24.2 12 Sudeste 18 Sudeste 0 945.9 -0.8 32
2020-03-11 17:00:00 24.8 12 Sudeste 23 Sudeste 0 946.1 -1.4 29
2020-03-11 16:00:00 25.7 15 Sudeste 28 Sur 0 946.4 -1.6 27
2020-03-11 15:00:00 26.6 17 Sudeste 25 Sudeste 0 946.7 -1.9 25
2020-03-11 14:00:00 26.4 18 Sudeste 26 Sudeste 0 947.5 -1.2 23
2020-03-11 13:00:00 24.6 17 Sudeste 28 Sudeste 0 948 -0.5 31
2020-03-11 12:00:00 23.8 10 Sur 19 Este 0 948.6 0.3 36
2020-03-11 11:00:00 22.3 14 Este 19 Sudeste 0 948.7 0.7 42
2020-03-11 10:00:00 21.1 13 Este 24 Sudeste 0 948.5 0.6 46
2020-03-11 09:00:00 18.6 7 Este 21 Sudeste 0 948.3 0.4 45
2020-03-11 08:00:00 16.6 17 Sudeste 23 Sudeste 0 948 0.3 47
2020-03-11 07:00:00 16 18 Sudeste 22 Sudeste 0 947.9 -0.2 46
2020-03-11 06:00:00 14.6 17 Este 20 Sudeste 0 947.9 -0.8 55
2020-03-11 05:00:00 14.7 14 Sudeste 19 Este 0 947.7 -1.5 55
2020-03-11 04:00:00 15.4 8 Este 13 Este 0 948.1 -1.6 52
2020-03-11 03:00:00 15.2 9 Sudeste 11 Sudeste 0 948.7 -1.5 53
2020-03-11 02:00:00 14.6 8 Sudeste 11 Sudeste 0 949.2 -0.9 55
2020-03-11 01:00:00 15 3 Sudeste 4 Sudeste 0 949.7 -0.1 54
2020-03-11 00:00:00 15.9 3 Nordeste 8 Sudeste 0 950.2 0.3 52